EUS35RD LEAL-LEBL
Flight info
| Callsign | EUS35RD |
|---|---|
| Flight time | N/A |
| Altitude | 31000 |
| Route | MITOS N851 IZA N856 MARTA |
| Aircraft | B738/M-SDE2E3FGHIRWXY/LB1 |
Departure
| Time | 2026-05-06 16:43 |
|---|---|
| Airport | Alicante-Elche Miguel Hernández Airport (LEAL) |
Arrival
| Time | N/A |
|---|---|
| Airport | Josep Tarradellas Barcelona-El Prat Airport (LEBL) |
| Time | Latitude | Longitude | Altitude | Speed | Heading |
|---|---|---|---|---|---|
| 2026-05-06 16:25 | 38.28609 | -0.55035 | 86 ft | 0 kts | 280° |
| 2026-05-06 16:32 | 38.28607 | -0.55020 | 88 ft | 4 kts | 280° |
| 2026-05-06 16:32 | 38.28604 | -0.54993 | 88 ft | 4 kts | 275° |
| 2026-05-06 16:33 | 38.28606 | -0.54961 | 89 ft | 4 kts | 239° |
| 2026-05-06 16:33 | 38.28623 | -0.54945 | 91 ft | 3 kts | 190° |
| 2026-05-06 16:33 | 38.28638 | -0.54942 | 86 ft | 1 kts | 190° |
| 2026-05-06 16:36 | 38.28628 | -0.54944 | 90 ft | 4 kts | 190° |
| 2026-05-06 16:36 | 38.28566 | -0.54958 | 90 ft | 13 kts | 190° |
| 2026-05-06 16:37 | 38.28469 | -0.54980 | 90 ft | 12 kts | 189° |
| 2026-05-06 16:37 | 38.28421 | -0.55070 | 89 ft | 16 kts | 260° |
| 2026-05-06 16:37 | 38.28357 | -0.55208 | 87 ft | 18 kts | 233° |
| 2026-05-06 16:37 | 38.28332 | -0.55371 | 91 ft | 20 kts | 281° |
| 2026-05-06 16:38 | 38.28358 | -0.55557 | 96 ft | 22 kts | 279° |
| 2026-05-06 16:38 | 38.28385 | -0.55749 | 99 ft | 22 kts | 279° |
| 2026-05-06 16:38 | 38.28411 | -0.55935 | 105 ft | 21 kts | 279° |
| 2026-05-06 16:38 | 38.28437 | -0.56118 | 107 ft | 21 kts | 279° |
| 2026-05-06 16:39 | 38.28462 | -0.56300 | 110 ft | 20 kts | 280° |
| 2026-05-06 16:39 | 38.28486 | -0.56476 | 113 ft | 20 kts | 279° |
| 2026-05-06 16:39 | 38.28510 | -0.56647 | 120 ft | 19 kts | 279° |
| 2026-05-06 16:39 | 38.28533 | -0.56812 | 124 ft | 19 kts | 280° |
| 2026-05-06 16:40 | 38.28556 | -0.56971 | 134 ft | 18 kts | 281° |
| 2026-05-06 16:40 | 38.28578 | -0.57125 | 141 ft | 17 kts | 279° |
| 2026-05-06 16:40 | 38.28598 | -0.57274 | 147 ft | 17 kts | 279° |
| 2026-05-06 16:40 | 38.28616 | -0.57410 | 151 ft | 14 kts | 279° |
| 2026-05-06 16:41 | 38.28574 | -0.57504 | 155 ft | 14 kts | 192° |
| 2026-05-06 16:41 | 38.28481 | -0.57516 | 156 ft | 14 kts | 166° |
| 2026-05-06 16:41 | 38.28442 | -0.57433 | 153 ft | 0 kts | 100° |
| 2026-05-06 16:41 | 38.28442 | -0.57431 | 153 ft | 0 kts | 100° |
| 2026-05-06 16:42 | 38.28442 | -0.57429 | 153 ft | 0 kts | 100° |
| 2026-05-06 16:42 | 38.28426 | -0.57315 | 148 ft | 45 kts | 100° |
| 2026-05-06 16:42 | 38.28324 | -0.56578 | 116 ft | 120 kts | 100° |
| 2026-05-06 16:43 | 38.28169 | -0.55331 | 395 ft | 153 kts | 97° |
| 2026-05-06 16:43 | 38.28018 | -0.53983 | 1302 ft | 152 kts | 97° |
| 2026-05-06 16:43 | 38.27869 | -0.52682 | 2246 ft | 143 kts | 98° |
| 2026-05-06 16:43 | 38.27667 | -0.51345 | 2715 ft | 170 kts | 101° |
| 2026-05-06 16:44 | 38.27451 | -0.49738 | 2942 ft | 198 kts | 87° |
| 2026-05-06 16:44 | 38.27876 | -0.47976 | 3139 ft | 222 kts | 63° |
| 2026-05-06 16:44 | 38.28737 | -0.46206 | 3438 ft | 244 kts | 58° |
| 2026-05-06 16:44 | 38.29703 | -0.44369 | 4064 ft | 256 kts | 57° |
| 2026-05-06 16:45 | 38.30718 | -0.42465 | 4753 ft | 263 kts | 56° |
| 2026-05-06 16:45 | 38.31761 | -0.40511 | 5455 ft | 269 kts | 56° |
| 2026-05-06 16:45 | 38.32792 | -0.38494 | 6212 ft | 275 kts | 62° |
| 2026-05-06 16:45 | 38.33573 | -0.36237 | 6929 ft | 281 kts | 68° |
| 2026-05-06 16:46 | 38.34278 | -0.33884 | 7662 ft | 287 kts | 68° |
| 2026-05-06 16:46 | 38.35008 | -0.31486 | 8416 ft | 293 kts | 67° |
| 2026-05-06 16:46 | 38.35770 | -0.29046 | 9197 ft | 299 kts | 67° |
| 2026-05-06 16:46 | 38.36560 | -0.26578 | 10017 ft | 303 kts | 66° |
| 2026-05-06 16:47 | 38.37400 | -0.24037 | 10473 ft | 322 kts | 65° |
| 2026-05-06 16:47 | 38.38302 | -0.21334 | 10910 ft | 338 kts | 66° |
| 2026-05-06 16:47 | 38.39229 | -0.18551 | 11652 ft | 343 kts | 66° |
| 2026-05-06 16:47 | 38.40162 | -0.15742 | 12496 ft | 347 kts | 66° |
| 2026-05-06 16:48 | 38.41107 | -0.12889 | 13325 ft | 351 kts | 66° |
| 2026-05-06 16:48 | 38.42063 | -0.10001 | 14127 ft | 356 kts | 66° |
| 2026-05-06 16:48 | 38.43033 | -0.07066 | 14890 ft | 361 kts | 66° |
| 2026-05-06 16:48 | 38.44013 | -0.04097 | 15665 ft | 366 kts | 66° |
| 2026-05-06 16:49 | 38.45006 | -0.01083 | 16415 ft | 372 kts | 66° |
| 2026-05-06 16:49 | 38.46007 | 0.01993 | 17135 ft | 378 kts | 67° |
| 2026-05-06 16:49 | 38.47013 | 0.05118 | 17877 ft | 384 kts | 67° |
| 2026-05-06 16:49 | 38.48033 | 0.08295 | 18558 ft | 390 kts | 67° |
| 2026-05-06 16:50 | 38.49053 | 0.11479 | 19167 ft | 395 kts | 67° |
| 2026-05-06 16:50 | 38.50116 | 0.14794 | 19777 ft | 401 kts | 67° |
| 2026-05-06 16:50 | 38.51166 | 0.18071 | 20387 ft | 407 kts | 67° |
| 2026-05-06 16:50 | 38.52246 | 0.21446 | 21001 ft | 413 kts | 67° |
| 2026-05-06 16:51 | 38.53337 | 0.24855 | 21600 ft | 418 kts | 68° |
| 2026-05-06 16:51 | 38.54443 | 0.28317 | 22188 ft | 424 kts | 68° |
| 2026-05-06 16:51 | 38.55562 | 0.31826 | 22772 ft | 429 kts | 68° |
| 2026-05-06 16:51 | 38.56701 | 0.35398 | 23350 ft | 435 kts | 68° |
| 2026-05-06 16:52 | 38.57845 | 0.38994 | 23862 ft | 439 kts | 68° |